sensor_id;sensor_type;location;lat;lon;timestamp;P1;durP1;ratioP1;P2;durP2;ratioP2
17449;SDS011;8842;51.244;7.102;2023-03-31T00:00:38;11.20;;;10.60;;
17449;SDS011;8842;51.244;7.102;2023-03-31T00:05:43;10.87;;;10.27;;
17449;SDS011;8842;51.244;7.102;2023-03-31T00:10:57;10.40;;;9.90;;
17449;SDS011;8842;51.244;7.102;2023-03-31T00:16:03;11.00;;;10.20;;
17449;SDS011;8842;51.244;7.102;2023-03-31T00:26:29;10.90;;;10.30;;
17449;SDS011;8842;51.244;7.102;2023-03-31T00:31:33;10.20;;;9.70;;
17449;SDS011;8842;51.244;7.102;2023-03-31T00:36:45;10.30;;;9.80;;
17449;SDS011;8842;51.244;7.102;2023-03-31T00:41:49;12.77;;;12.07;;
17449;SDS011;8842;51.244;7.102;2023-03-31T00:47:02;13.13;;;12.43;;
17449;SDS011;8842;51.244;7.102;2023-03-31T00:52:10;13.40;;;12.70;;
17449;SDS011;8842;51.244;7.102;2023-03-31T00:57:25;13.87;;;13.17;;
17449;SDS011;8842;51.244;7.102;2023-03-31T01:02:33;14.33;;;13.53;;
17449;SDS011;8842;51.244;7.102;2023-03-31T01:07:40;14.30;;;13.60;;
17449;SDS011;8842;51.244;7.102;2023-03-31T01:12:46;14.20;;;13.50;;
17449;SDS011;8842;51.244;7.102;2023-03-31T01:17:59;14.60;;;13.80;;
17449;SDS011;8842;51.244;7.102;2023-03-31T01:28:45;14.00;;;13.30;;
17449;SDS011;8842;51.244;7.102;2023-03-31T01:34:07;13.70;;;13.00;;
17449;SDS011;8842;51.244;7.102;2023-03-31T01:45:01;13.90;;;13.20;;
17449;SDS011;8842;51.244;7.102;2023-03-31T01:50:12;14.00;;;13.20;;
17449;SDS011;8842;51.244;7.102;2023-03-31T01:55:27;14.47;;;13.67;;
17449;SDS011;8842;51.244;7.102;2023-03-31T02:00:35;14.83;;;14.03;;
17449;SDS011;8842;51.244;7.102;2023-03-31T02:05:52;14.33;;;13.57;;
17449;SDS011;8842;51.244;7.102;2023-03-31T02:10:58;14.37;;;13.60;;
17449;SDS011;8842;51.244;7.102;2023-03-31T02:16:11;15.13;;;14.33;;
17449;SDS011;8842;51.244;7.102;2023-03-31T02:21:18;14.73;;;13.93;;
17449;SDS011;8842;51.244;7.102;2023-03-31T02:31:40;14.80;;;14.00;;
17449;SDS011;8842;51.244;7.102;2023-03-31T02:36:45;14.80;;;14.00;;
17449;SDS011;8842;51.244;7.102;2023-03-31T02:41:57;14.80;;;14.00;;
17449;SDS011;8842;51.244;7.102;2023-03-31T02:52:24;14.73;;;13.93;;
17449;SDS011;8842;51.244;7.102;2023-03-31T02:57:46;14.10;;;13.33;;
17449;SDS011;8842;51.244;7.102;2023-03-31T03:03:00;14.10;;;13.40;;
17449;SDS011;8842;51.244;7.102;2023-03-31T03:08:18;14.70;;;13.90;;
17449;SDS011;8842;51.244;7.102;2023-03-31T03:13:27;14.73;;;13.93;;
17449;SDS011;8842;51.244;7.102;2023-03-31T03:18:43;15.30;;;14.50;;
17449;SDS011;8842;51.244;7.102;2023-03-31T03:23:47;14.90;;;14.10;;
17449;SDS011;8842;51.244;7.102;2023-03-31T03:28:59;14.70;;;13.90;;
17449;SDS011;8842;51.244;7.102;2023-03-31T03:34:03;14.67;;;13.87;;
17449;SDS011;8842;51.244;7.102;2023-03-31T03:39:17;14.57;;;13.77;;
17449;SDS011;8842;51.244;7.102;2023-03-31T03:44:21;15.50;;;14.40;;
17449;SDS011;8842;51.244;7.102;2023-03-31T03:49:33;14.93;;;14.13;;
17449;SDS011;8842;51.244;7.102;2023-03-31T03:54:37;15.30;;;14.50;;
17449;SDS011;8842;51.244;7.102;2023-03-31T03:59:51;15.40;;;14.60;;
17449;SDS011;8842;51.244;7.102;2023-03-31T04:04:55;15.30;;;14.50;;
17449;SDS011;8842;51.244;7.102;2023-03-31T04:09:59;15.00;;;14.20;;
17449;SDS011;8842;51.244;7.102;2023-03-31T04:15:14;15.53;;;14.73;;
17449;SDS011;8842;51.244;7.102;2023-03-31T04:20:19;15.00;;;14.20;;
17449;SDS011;8842;51.244;7.102;2023-03-31T04:25:32;15.20;;;14.40;;
17449;SDS011;8842;51.244;7.102;2023-03-31T04:35:49;14.77;;;13.97;;
17449;SDS011;8842;51.244;7.102;2023-03-31T04:40:54;15.20;;;14.40;;
17449;SDS011;8842;51.244;7.102;2023-03-31T04:46:08;15.40;;;14.60;;
17449;SDS011;8842;51.244;7.102;2023-03-31T04:51:12;15.20;;;14.40;;
17449;SDS011;8842;51.244;7.102;2023-03-31T04:56:18;15.70;;;14.90;;
17449;SDS011;8842;51.244;7.102;2023-03-31T05:01:32;15.50;;;14.70;;
17449;SDS011;8842;51.244;7.102;2023-03-31T05:06:37;16.00;;;15.10;;
17449;SDS011;8842;51.244;7.102;2023-03-31T05:11:52;15.73;;;14.93;;
17449;SDS011;8842;51.244;7.102;2023-03-31T05:16:56;15.50;;;14.70;;
17449;SDS011;8842;51.244;7.102;2023-03-31T05:22:00;15.17;;;14.37;;
17449;SDS011;8842;51.244;7.102;2023-03-31T05:27:15;15.53;;;14.73;;
17449;SDS011;8842;51.244;7.102;2023-03-31T05:32:19;15.30;;;14.50;;
17449;SDS011;8842;51.244;7.102;2023-03-31T05:37:33;15.50;;;14.70;;
17449;SDS011;8842;51.244;7.102;2023-03-31T05:42:37;15.50;;;14.70;;
17449;SDS011;8842;51.244;7.102;2023-03-31T05:47:41;14.87;;;14.07;;
17449;SDS011;8842;51.244;7.102;2023-03-31T05:52:45;15.40;;;14.50;;
17449;SDS011;8842;51.244;7.102;2023-03-31T05:57:57;15.57;;;14.77;;
17449;SDS011;8842;51.244;7.102;2023-03-31T06:03:01;15.93;;;15.07;;
17449;SDS011;8842;51.244;7.102;2023-03-31T06:08:13;16.20;;;15.30;;
17449;SDS011;8842;51.244;7.102;2023-03-31T06:13:17;16.27;;;15.37;;
17449;SDS011;8842;51.244;7.102;2023-03-31T06:18:33;15.87;;;15.00;;
17449;SDS011;8842;51.244;7.102;2023-03-31T06:23:37;16.03;;;15.13;;
17449;SDS011;8842;51.244;7.102;2023-03-31T06:28:52;16.07;;;15.17;;
17449;SDS011;8842;51.244;7.102;2023-03-31T06:33:56;15.67;;;14.87;;
17449;SDS011;8842;51.244;7.102;2023-03-31T06:39:11;16.20;;;15.30;;
17449;SDS011;8842;51.244;7.102;2023-03-31T06:44:15;15.70;;;14.90;;
17449;SDS011;8842;51.244;7.102;2023-03-31T06:49:30;15.67;;;14.87;;
17449;SDS011;8842;51.244;7.102;2023-03-31T06:54:34;16.03;;;15.13;;
17449;SDS011;8842;51.244;7.102;2023-03-31T06:59:48;16.03;;;15.13;;
17449;SDS011;8842;51.244;7.102;2023-03-31T07:04:52;15.27;;;14.47;;
17449;SDS011;8842;51.244;7.102;2023-03-31T07:10:07;15.90;;;15.00;;
17449;SDS011;8842;51.244;7.102;2023-03-31T07:15:11;16.33;;;15.43;;
17449;SDS011;8842;51.244;7.102;2023-03-31T07:20:23;15.90;;;15.00;;
17449;SDS011;8842;51.244;7.102;2023-03-31T07:25:27;15.33;;;14.53;;
17449;SDS011;8842;51.244;7.102;2023-03-31T07:30:42;15.50;;;14.70;;
17449;SDS011;8842;51.244;7.102;2023-03-31T07:35:46;15.13;;;14.30;;
17449;SDS011;8842;51.244;7.102;2023-03-31T07:40:58;15.30;;;14.50;;
17449;SDS011;8842;51.244;7.102;2023-03-31T07:46:02;15.60;;;14.70;;
17449;SDS011;8842;51.244;7.102;2023-03-31T07:51:17;15.70;;;14.90;;
17449;SDS011;8842;51.244;7.102;2023-03-31T07:56:23;16.13;;;15.23;;
17449;SDS011;8842;51.244;7.102;2023-03-31T08:01:28;15.00;;;14.20;;
17449;SDS011;8842;51.244;7.102;2023-03-31T08:06:40;15.50;;;14.70;;
17449;SDS011;8842;51.244;7.102;2023-03-31T08:11:44;15.60;;;14.80;;
17449;SDS011;8842;51.244;7.102;2023-03-31T08:16:55;15.80;;;14.90;;
17449;SDS011;8842;51.244;7.102;2023-03-31T08:27:12;15.50;;;14.70;;
17449;SDS011;8842;51.244;7.102;2023-03-31T08:32:17;15.63;;;14.73;;
17449;SDS011;8842;51.244;7.102;2023-03-31T08:37:22;15.10;;;14.30;;
17449;SDS011;8842;51.244;7.102;2023-03-31T08:42:38;16.10;;;15.20;;
17449;SDS011;8842;51.244;7.102;2023-03-31T08:47:44;16.23;;;15.33;;
17449;SDS011;8842;51.244;7.102;2023-03-31T08:53:03;15.37;;;14.57;;
17449;SDS011;8842;51.244;7.102;2023-03-31T08:58:10;15.40;;;14.50;;
17449;SDS011;8842;51.244;7.102;2023-03-31T09:08:32;16.00;;;15.10;;
17449;SDS011;8842;51.244;7.102;2023-03-31T09:13:45;15.77;;;14.90;;
17449;SDS011;8842;51.244;7.102;2023-03-31T09:19:16;15.40;;;14.60;;
17449;SDS011;8842;51.244;7.102;2023-03-31T09:24:31;15.27;;;14.47;;
17449;SDS011;8842;51.244;7.102;2023-03-31T09:29:40;15.10;;;14.30;;
17449;SDS011;8842;51.244;7.102;2023-03-31T09:34:56;15.40;;;14.60;;
17449;SDS011;8842;51.244;7.102;2023-03-31T09:40:04;15.30;;;14.50;;
17449;SDS011;8842;51.244;7.102;2023-03-31T09:45:17;15.43;;;14.63;;
17449;SDS011;8842;51.244;7.102;2023-03-31T09:50:23;14.80;;;14.00;;
17449;SDS011;8842;51.244;7.102;2023-03-31T09:55:40;15.10;;;14.30;;
17449;SDS011;8842;51.244;7.102;2023-03-31T10:00:55;14.10;;;13.40;;
17449;SDS011;8842;51.244;7.102;2023-03-31T10:06:02;14.40;;;13.60;;
17449;SDS011;8842;51.244;7.102;2023-03-31T10:11:20;14.77;;;13.97;;
17449;SDS011;8842;51.244;7.102;2023-03-31T10:16:27;14.90;;;14.10;;
17449;SDS011;8842;51.244;7.102;2023-03-31T10:21:44;13.67;;;12.97;;
17449;SDS011;8842;51.244;7.102;2023-03-31T10:26:51;14.67;;;13.20;;
17449;SDS011;8842;51.244;7.102;2023-03-31T10:32:08;13.30;;;12.60;;
17449;SDS011;8842;51.244;7.102;2023-03-31T10:37:17;13.70;;;13.00;;
17449;SDS011;8842;51.244;7.102;2023-03-31T10:42:32;13.40;;;12.70;;
17449;SDS011;8842;51.244;7.102;2023-03-31T10:47:36;13.10;;;12.40;;
17449;SDS011;8842;51.244;7.102;2023-03-31T10:52:51;13.30;;;12.60;;
17449;SDS011;8842;51.244;7.102;2023-03-31T10:58:05;13.50;;;12.80;;
17449;SDS011;8842;51.244;7.102;2023-03-31T11:09:02;13.07;;;12.37;;
17449;SDS011;8842;51.244;7.102;2023-03-31T11:14:12;13.53;;;12.83;;
17449;SDS011;8842;51.244;7.102;2023-03-31T11:19:22;14.20;;;13.40;;
17449;SDS011;8842;51.244;7.102;2023-03-31T11:24:36;14.47;;;13.77;;
17449;SDS011;8842;51.244;7.102;2023-03-31T11:29:59;15.20;;;14.40;;
17449;SDS011;8842;51.244;7.102;2023-03-31T11:35:10;13.67;;;12.97;;
17449;SDS011;8842;51.244;7.102;2023-03-31T11:40:38;14.00;;;13.30;;
17449;SDS011;8842;51.244;7.102;2023-03-31T11:45:50;14.03;;;13.23;;
17449;SDS011;8842;51.244;7.102;2023-03-31T11:50:56;14.00;;;13.30;;
17449;SDS011;8842;51.244;7.102;2023-03-31T11:56:11;13.17;;;12.47;;
17449;SDS011;8842;51.244;7.102;2023-03-31T12:01:26;13.67;;;12.97;;
17449;SDS011;8842;51.244;7.102;2023-03-31T12:06:34;14.20;;;13.50;;
17449;SDS011;8842;51.244;7.102;2023-03-31T12:11:51;13.87;;;13.17;;
17449;SDS011;8842;51.244;7.102;2023-03-31T12:16:59;13.20;;;12.50;;
17449;SDS011;8842;51.244;7.102;2023-03-31T12:22:09;12.90;;;12.20;;
17449;SDS011;8842;51.244;7.102;2023-03-31T12:27:23;13.30;;;12.60;;
17449;SDS011;8842;51.244;7.102;2023-03-31T12:32:30;13.90;;;13.20;;
17449;SDS011;8842;51.244;7.102;2023-03-31T12:37:50;14.17;;;13.47;;
17449;SDS011;8842;51.244;7.102;2023-03-31T12:43:18;14.33;;;13.53;;
17449;SDS011;8842;51.244;7.102;2023-03-31T12:48:43;14.13;;;13.43;;
17449;SDS011;8842;51.244;7.102;2023-03-31T12:59:29;14.70;;;13.90;;
17449;SDS011;8842;51.244;7.102;2023-03-31T13:04:26;14.37;;;13.57;;
17449;SDS011;8842;51.244;7.102;2023-03-31T13:09:47;14.43;;;13.63;;
17449;SDS011;8842;51.244;7.102;2023-03-31T13:20:17;14.13;;;13.43;;
17449;SDS011;8842;51.244;7.102;2023-03-31T13:25:44;14.50;;;13.70;;
17449;SDS011;8842;51.244;7.102;2023-03-31T13:31:00;13.50;;;12.80;;
17449;SDS011;8842;51.244;7.102;2023-03-31T13:42:01;13.57;;;12.87;;
17449;SDS011;8842;51.244;7.102;2023-03-31T13:47:18;13.97;;;13.27;;
17449;SDS011;8842;51.244;7.102;2023-03-31T13:52:49;13.20;;;12.50;;
17449;SDS011;8842;51.244;7.102;2023-03-31T13:58:10;13.60;;;12.90;;
17449;SDS011;8842;51.244;7.102;2023-03-31T14:03:33;13.53;;;12.83;;
17449;SDS011;8842;51.244;7.102;2023-03-31T14:08:45;13.60;;;12.90;;
17449;SDS011;8842;51.244;7.102;2023-03-31T14:13:59;14.47;;;13.67;;
17449;SDS011;8842;51.244;7.102;2023-03-31T14:19:20;13.30;;;12.60;;
17449;SDS011;8842;51.244;7.102;2023-03-31T14:24:49;13.30;;;12.60;;
17449;SDS011;8842;51.244;7.102;2023-03-31T14:30:04;13.37;;;12.67;;
17449;SDS011;8842;51.244;7.102;2023-03-31T14:35:23;13.10;;;12.40;;
17449;SDS011;8842;51.244;7.102;2023-03-31T14:40:42;13.00;;;12.30;;
17449;SDS011;8842;51.244;7.102;2023-03-31T14:45:56;14.93;;;12.67;;
17449;SDS011;8842;51.244;7.102;2023-03-31T14:51:08;12.27;;;11.67;;
17449;SDS011;8842;51.244;7.102;2023-03-31T14:56:14;11.40;;;10.80;;
17449;SDS011;8842;51.244;7.102;2023-03-31T15:01:22;10.43;;;9.93;;
17449;SDS011;8842;51.244;7.102;2023-03-31T15:06:29;11.00;;;10.40;;
17449;SDS011;8842;51.244;7.102;2023-03-31T15:11:43;8.50;;;8.10;;
17449;SDS011;8842;51.244;7.102;2023-03-31T15:16:49;9.77;;;9.27;;
17449;SDS011;8842;51.244;7.102;2023-03-31T15:21:54;9.70;;;9.20;;
17449;SDS011;8842;51.244;7.102;2023-03-31T15:27:02;9.70;;;9.00;;
17449;SDS011;8842;51.244;7.102;2023-03-31T15:32:20;9.90;;;9.40;;
17449;SDS011;8842;51.244;7.102;2023-03-31T15:42:40;11.07;;;10.47;;
17449;SDS011;8842;51.244;7.102;2023-03-31T15:47:48;11.13;;;10.53;;
17449;SDS011;8842;51.244;7.102;2023-03-31T15:52:53;10.97;;;10.37;;
17449;SDS011;8842;51.244;7.102;2023-03-31T15:58:00;11.97;;;11.37;;
17449;SDS011;8842;51.244;7.102;2023-03-31T16:03:12;11.90;;;11.30;;
17449;SDS011;8842;51.244;7.102;2023-03-31T16:08:25;11.90;;;11.30;;
17449;SDS011;8842;51.244;7.102;2023-03-31T16:13:32;12.13;;;11.53;;
17449;SDS011;8842;51.244;7.102;2023-03-31T16:18:48;12.20;;;11.60;;
17449;SDS011;8842;51.244;7.102;2023-03-31T16:23:54;11.70;;;11.10;;
17449;SDS011;8842;51.244;7.102;2023-03-31T16:29:06;12.70;;;12.00;;
17449;SDS011;8842;51.244;7.102;2023-03-31T16:34:10;12.73;;;12.03;;
17449;SDS011;8842;51.244;7.102;2023-03-31T16:39:24;12.57;;;11.97;;
17449;SDS011;8842;51.244;7.102;2023-03-31T16:49:42;10.60;;;10.03;;
17449;SDS011;8842;51.244;7.102;2023-03-31T16:54:46;10.00;;;9.50;;
17449;SDS011;8842;51.244;7.102;2023-03-31T16:59:58;11.40;;;10.80;;
17449;SDS011;8842;51.244;7.102;2023-03-31T17:05:02;11.50;;;10.90;;
17449;SDS011;8842;51.244;7.102;2023-03-31T17:10:08;11.80;;;11.20;;
17449;SDS011;8842;51.244;7.102;2023-03-31T17:15:14;11.20;;;10.60;;
17449;SDS011;8842;51.244;7.102;2023-03-31T17:20:28;12.20;;;11.60;;
17449;SDS011;8842;51.244;7.102;2023-03-31T17:25:33;11.90;;;11.30;;
17449;SDS011;8842;51.244;7.102;2023-03-31T17:30:47;12.27;;;11.67;;
17449;SDS011;8842;51.244;7.102;2023-03-31T17:35:54;12.30;;;11.70;;
17449;SDS011;8842;51.244;7.102;2023-03-31T17:41:01;13.07;;;12.37;;
17449;SDS011;8842;51.244;7.102;2023-03-31T17:46:06;14.23;;;13.53;;
17449;SDS011;8842;51.244;7.102;2023-03-31T17:51:13;13.53;;;12.83;;
17449;SDS011;8842;51.244;7.102;2023-03-31T17:56:19;13.70;;;13.00;;
17449;SDS011;8842;51.244;7.102;2023-03-31T18:01:23;13.27;;;12.57;;
17449;SDS011;8842;51.244;7.102;2023-03-31T18:06:35;12.60;;;11.90;;
17449;SDS011;8842;51.244;7.102;2023-03-31T18:11:39;12.63;;;11.93;;
17449;SDS011;8842;51.244;7.102;2023-03-31T18:16:51;12.70;;;12.00;;
17449;SDS011;8842;51.244;7.102;2023-03-31T18:21:55;13.30;;;12.60;;
17449;SDS011;8842;51.244;7.102;2023-03-31T18:26:59;13.30;;;12.60;;
17449;SDS011;8842;51.244;7.102;2023-03-31T18:32:03;13.60;;;12.90;;
17449;SDS011;8842;51.244;7.102;2023-03-31T18:37:08;13.57;;;12.87;;
17449;SDS011;8842;51.244;7.102;2023-03-31T18:47:26;12.93;;;12.23;;
17449;SDS011;8842;51.244;7.102;2023-03-31T18:57:42;13.60;;;12.90;;
17449;SDS011;8842;51.244;7.102;2023-03-31T19:02:47;13.30;;;12.60;;
17449;SDS011;8842;51.244;7.102;2023-03-31T19:08:04;12.93;;;12.23;;
17449;SDS011;8842;51.244;7.102;2023-03-31T19:13:11;13.63;;;12.93;;
17449;SDS011;8842;51.244;7.102;2023-03-31T19:18:16;13.73;;;13.03;;
17449;SDS011;8842;51.244;7.102;2023-03-31T19:23:20;13.20;;;12.50;;
17449;SDS011;8842;51.244;7.102;2023-03-31T19:28:24;13.53;;;12.83;;
17449;SDS011;8842;51.244;7.102;2023-03-31T19:38:40;13.30;;;12.60;;
17449;SDS011;8842;51.244;7.102;2023-03-31T19:43:44;13.20;;;12.50;;
17449;SDS011;8842;51.244;7.102;2023-03-31T19:48:58;12.17;;;11.57;;
17449;SDS011;8842;51.244;7.102;2023-03-31T19:54:03;12.27;;;11.67;;
17449;SDS011;8842;51.244;7.102;2023-03-31T19:59:15;11.00;;;10.40;;
17449;SDS011;8842;51.244;7.102;2023-03-31T20:04:19;11.20;;;10.60;;
17449;SDS011;8842;51.244;7.102;2023-03-31T20:09:24;10.73;;;10.13;;
17449;SDS011;8842;51.244;7.102;2023-03-31T20:14:38;12.00;;;11.40;;
17449;SDS011;8842;51.244;7.102;2023-03-31T20:19:42;12.37;;;11.77;;
17449;SDS011;8842;51.244;7.102;2023-03-31T20:24:55;12.10;;;11.50;;
17449;SDS011;8842;51.244;7.102;2023-03-31T20:30:00;11.33;;;10.73;;
17449;SDS011;8842;51.244;7.102;2023-03-31T20:35:04;11.70;;;11.10;;
17449;SDS011;8842;51.244;7.102;2023-03-31T20:40:09;12.80;;;12.10;;
17449;SDS011;8842;51.244;7.102;2023-03-31T20:45:14;11.50;;;10.90;;
17449;SDS011;8842;51.244;7.102;2023-03-31T20:50:18;12.20;;;11.60;;
17449;SDS011;8842;51.244;7.102;2023-03-31T20:55:24;12.10;;;11.50;;
17449;SDS011;8842;51.244;7.102;2023-03-31T21:00:29;13.17;;;12.47;;
17449;SDS011;8842;51.244;7.102;2023-03-31T21:05:39;13.60;;;12.90;;
17449;SDS011;8842;51.244;7.102;2023-03-31T21:10:54;13.10;;;12.40;;
17449;SDS011;8842;51.244;7.102;2023-03-31T21:16:00;13.60;;;12.90;;
17449;SDS011;8842;51.244;7.102;2023-03-31T21:21:06;13.10;;;12.40;;
17449;SDS011;8842;51.244;7.102;2023-03-31T21:26:13;13.70;;;13.00;;
17449;SDS011;8842;51.244;7.102;2023-03-31T21:31:18;13.23;;;12.53;;
17449;SDS011;8842;51.244;7.102;2023-03-31T21:41:36;13.40;;;12.70;;
17449;SDS011;8842;51.244;7.102;2023-03-31T21:46:42;12.90;;;12.20;;
17449;SDS011;8842;51.244;7.102;2023-03-31T21:51:53;13.20;;;12.50;;
17449;SDS011;8842;51.244;7.102;2023-03-31T21:56:58;13.00;;;12.30;;
17449;SDS011;8842;51.244;7.102;2023-03-31T22:02:02;12.63;;;11.93;;
17449;SDS011;8842;51.244;7.102;2023-03-31T22:07:06;12.90;;;12.20;;
17449;SDS011;8842;51.244;7.102;2023-03-31T22:12:18;12.70;;;12.00;;
17449;SDS011;8842;51.244;7.102;2023-03-31T22:17:22;13.40;;;12.70;;
17449;SDS011;8842;51.244;7.102;2023-03-31T22:22:35;13.00;;;12.30;;
17449;SDS011;8842;51.244;7.102;2023-03-31T22:27:40;13.33;;;12.63;;
17449;SDS011;8842;51.244;7.102;2023-03-31T22:32:52;12.90;;;12.20;;
17449;SDS011;8842;51.244;7.102;2023-03-31T22:37:57;13.20;;;12.50;;
17449;SDS011;8842;51.244;7.102;2023-03-31T22:43:01;13.30;;;12.60;;
17449;SDS011;8842;51.244;7.102;2023-03-31T22:48:05;13.40;;;12.70;;
17449;SDS011;8842;51.244;7.102;2023-03-31T22:53:10;13.40;;;12.70;;
17449;SDS011;8842;51.244;7.102;2023-03-31T22:58:14;12.87;;;12.17;;
17449;SDS011;8842;51.244;7.102;2023-03-31T23:03:18;12.43;;;11.83;;
17449;SDS011;8842;51.244;7.102;2023-03-31T23:08:30;13.00;;;12.30;;
17449;SDS011;8842;51.244;7.102;2023-03-31T23:13:37;12.70;;;12.00;;
17449;SDS011;8842;51.244;7.102;2023-03-31T23:18:52;13.50;;;12.80;;
17449;SDS011;8842;51.244;7.102;2023-03-31T23:23:58;12.90;;;12.20;;
17449;SDS011;8842;51.244;7.102;2023-03-31T23:29:04;13.43;;;12.73;;
17449;SDS011;8842;51.244;7.102;2023-03-31T23:34:08;13.00;;;12.30;;
17449;SDS011;8842;51.244;7.102;2023-03-31T23:39:13;13.50;;;12.80;;
17449;SDS011;8842;51.244;7.102;2023-03-31T23:44:17;13.40;;;12.70;;
17449;SDS011;8842;51.244;7.102;2023-03-31T23:49:21;12.90;;;12.20;;
17449;SDS011;8842;51.244;7.102;2023-03-31T23:54:25;13.20;;;12.50;;
17449;SDS011;8842;51.244;7.102;2023-03-31T23:59:30;12.40;;;11.80;;
